sensor_id;sensor_type;location;lat;lon;timestamp;pressure;altitude;pressure_sealevel;temperature;humidity
48926;BME280;39838;59.938;30.642;2023-11-21T00:00:14;101030.16;;;-3.58;76.86
48926;BME280;39838;59.938;30.642;2023-11-21T00:02:42;101034.06;;;-3.63;76.85
48926;BME280;39838;59.938;30.642;2023-11-21T00:05:10;101020.38;;;-3.78;76.70
48926;BME280;39838;59.938;30.642;2023-11-21T00:07:40;101023.66;;;-3.79;77.28
48926;BME280;39838;59.938;30.642;2023-11-21T00:10:10;101028.00;;;-3.78;77.83
48926;BME280;39838;59.938;30.642;2023-11-21T00:12:38;101019.69;;;-3.76;77.74
48926;BME280;39838;59.938;30.642;2023-11-21T00:15:08;101022.13;;;-3.77;77.28
48926;BME280;39838;59.938;30.642;2023-11-21T00:17:36;101023.75;;;-3.91;77.47
48926;BME280;39838;59.938;30.642;2023-11-21T00:20:05;101032.53;;;-3.99;78.00
48926;BME280;39838;59.938;30.642;2023-11-21T00:22:33;101034.16;;;-4.00;77.92
48926;BME280;39838;59.938;30.642;2023-11-21T00:25:00;101037.47;;;-4.01;78.06
48926;BME280;39838;59.938;30.642;2023-11-21T00:27:33;101051.41;;;-4.07;78.07
48926;BME280;39838;59.938;30.642;2023-11-21T00:30:00;101038.03;;;-4.18;78.71
48926;BME280;39838;59.938;30.642;2023-11-21T00:32:32;101050.34;;;-4.11;78.48
48926;BME280;39838;59.938;30.642;2023-11-21T00:35:00;101051.41;;;-4.07;78.94
48926;BME280;39838;59.938;30.642;2023-11-21T00:37:28;101057.00;;;-4.00;78.65
48926;BME280;39838;59.938;30.642;2023-11-21T00:39:55;101064.94;;;-3.95;78.42
48926;BME280;39838;59.938;30.642;2023-11-21T00:42:22;101050.31;;;-3.99;78.83
48926;BME280;39838;59.938;30.642;2023-11-21T00:44:51;101057.91;;;-3.99;78.40
48926;BME280;39838;59.938;30.642;2023-11-21T00:47:18;101057.50;;;-4.05;78.90
48926;BME280;39838;59.938;30.642;2023-11-21T00:49:45;101057.59;;;-4.04;79.14
48926;BME280;39838;59.938;30.642;2023-11-21T00:52:12;101053.59;;;-4.00;79.27
48926;BME280;39838;59.938;30.642;2023-11-21T00:54:39;101065.25;;;-3.91;79.22
48926;BME280;39838;59.938;30.642;2023-11-21T00:57:06;101078.03;;;-3.89;78.74
48926;BME280;39838;59.938;30.642;2023-11-21T00:59:34;101070.47;;;-4.01;78.66
48926;BME280;39838;59.938;30.642;2023-11-21T01:02:03;101070.19;;;-4.05;78.56
48926;BME280;39838;59.938;30.642;2023-11-21T01:04:31;101054.47;;;-4.13;78.84
48926;BME280;39838;59.938;30.642;2023-11-21T01:06:59;101072.22;;;-4.00;79.10
48926;BME280;39838;59.938;30.642;2023-11-21T01:09:26;101050.09;;;-4.02;78.96
48926;BME280;39838;59.938;30.642;2023-11-21T01:11:53;101072.69;;;-3.80;78.73
48926;BME280;39838;59.938;30.642;2023-11-21T01:14:21;101081.59;;;-3.74;78.53
48926;BME280;39838;59.938;30.642;2023-11-21T01:16:48;101078.09;;;-3.76;78.34
48926;BME280;39838;59.938;30.642;2023-11-21T01:19:16;101066.47;;;-3.72;78.37
48926;BME280;39838;59.938;30.642;2023-11-21T01:21:44;101065.09;;;-3.67;78.84
48926;BME280;39838;59.938;30.642;2023-11-21T01:24:11;101070.31;;;-3.66;78.28
48926;BME280;39838;59.938;30.642;2023-11-21T01:26:38;101073.91;;;-3.62;78.00
48926;BME280;39838;59.938;30.642;2023-11-21T01:29:05;101076.06;;;-3.55;78.16
48926;BME280;39838;59.938;30.642;2023-11-21T01:31:32;101074.72;;;-3.50;78.02
48926;BME280;39838;59.938;30.642;2023-11-21T01:33:59;101049.69;;;-3.57;77.98
48926;BME280;39838;59.938;30.642;2023-11-21T01:36:31;101077.75;;;-3.42;77.47
48926;BME280;39838;59.938;30.642;2023-11-21T01:38:59;101081.88;;;-3.44;77.29
48926;BME280;39838;59.938;30.642;2023-11-21T01:41:26;101077.06;;;-3.40;77.28
48926;BME280;39838;59.938;30.642;2023-11-21T01:43:54;101076.41;;;-3.37;77.05
48926;BME280;39838;59.938;30.642;2023-11-21T01:46:21;101052.81;;;-3.48;76.91
48926;BME280;39838;59.938;30.642;2023-11-21T01:48:49;101077.06;;;-3.26;76.96
48926;BME280;39838;59.938;30.642;2023-11-21T01:51:17;101076.59;;;-3.21;76.93
48926;BME280;39838;59.938;30.642;2023-11-21T01:53:46;101077.28;;;-3.10;76.45
48926;BME280;39838;59.938;30.642;2023-11-21T01:56:14;101089.50;;;-3.05;76.17
48926;BME280;39838;59.938;30.642;2023-11-21T01:58:42;101081.28;;;-3.14;75.93
48926;BME280;39838;59.938;30.642;2023-11-21T02:01:09;101087.06;;;-3.16;75.95
48926;BME280;39838;59.938;30.642;2023-11-21T02:03:37;101083.63;;;-3.17;76.33
48926;BME280;39838;59.938;30.642;2023-11-21T02:06:05;101084.31;;;-3.19;75.83
48926;BME280;39838;59.938;30.642;2023-11-21T02:08:32;101079.22;;;-3.19;76.01
48926;BME280;39838;59.938;30.642;2023-11-21T02:11:01;101077.69;;;-3.17;76.20
48926;BME280;39838;59.938;30.642;2023-11-21T02:13:28;101089.00;;;-3.12;76.10
48926;BME280;39838;59.938;30.642;2023-11-21T02:15:55;101098.41;;;-3.11;76.20
48926;BME280;39838;59.938;30.642;2023-11-21T02:18:24;101100.34;;;-3.20;75.89
48926;BME280;39838;59.938;30.642;2023-11-21T02:20:51;101096.03;;;-3.21;76.22
48926;BME280;39838;59.938;30.642;2023-11-21T02:23:20;101100.25;;;-3.22;75.88
48926;BME280;39838;59.938;30.642;2023-11-21T02:25:49;101089.38;;;-3.19;76.02
48926;BME280;39838;59.938;30.642;2023-11-21T02:28:16;101087.06;;;-3.16;76.06
48926;BME280;39838;59.938;30.642;2023-11-21T02:30:51;101090.19;;;-3.07;75.83
48926;BME280;39838;59.938;30.642;2023-11-21T02:33:21;101091.94;;;-3.06;75.91
48926;BME280;39838;59.938;30.642;2023-11-21T02:35:48;101088.41;;;-3.08;75.94
48926;BME280;39838;59.938;30.642;2023-11-21T02:38:17;101087.06;;;-3.03;75.68
48926;BME280;39838;59.938;30.642;2023-11-21T02:40:45;101080.31;;;-3.03;75.39
48926;BME280;39838;59.938;30.642;2023-11-21T02:43:12;101086.34;;;-3.14;75.50
48926;BME280;39838;59.938;30.642;2023-11-21T02:45:40;101081.97;;;-3.16;75.88
48926;BME280;39838;59.938;30.642;2023-11-21T02:48:07;101079.81;;;-3.10;76.07
48926;BME280;39838;59.938;30.642;2023-11-21T02:50:35;101085.41;;;-3.03;76.07
48926;BME280;39838;59.938;30.642;2023-11-21T02:53:03;101098.59;;;-2.95;75.82
48926;BME280;39838;59.938;30.642;2023-11-21T02:55:32;101093.81;;;-2.90;75.71
48926;BME280;39838;59.938;30.642;2023-11-21T02:58:02;101093.81;;;-2.90;76.03
48926;BME280;39838;59.938;30.642;2023-11-21T03:00:32;101094.94;;;-2.85;75.82
48926;BME280;39838;59.938;30.642;2023-11-21T03:02:59;101099.38;;;-2.83;75.45
48926;BME280;39838;59.938;30.642;2023-11-21T03:05:26;101098.00;;;-2.78;75.53
48926;BME280;39838;59.938;30.642;2023-11-21T03:07:54;101102.56;;;-2.72;75.23
48926;BME280;39838;59.938;30.642;2023-11-21T03:10:22;101099.75;;;-2.77;74.75
48926;BME280;39838;59.938;30.642;2023-11-21T03:12:49;101122.81;;;-2.73;74.71
48926;BME280;39838;59.938;30.642;2023-11-21T03:15:17;101121.66;;;-2.79;74.95
48926;BME280;39838;59.938;30.642;2023-11-21T03:17:45;101111.69;;;-2.76;74.95
48926;BME280;39838;59.938;30.642;2023-11-21T03:20:14;101115.28;;;-2.72;74.98
48926;BME280;39838;59.938;30.642;2023-11-21T03:22:42;101124.00;;;-2.68;74.79
48926;BME280;39838;59.938;30.642;2023-11-21T03:25:10;101127.63;;;-2.78;74.52
48926;BME280;39838;59.938;30.642;2023-11-21T03:27:37;101129.41;;;-2.90;74.33
48926;BME280;39838;59.938;30.642;2023-11-21T03:30:08;101103.88;;;-3.18;74.78
48926;BME280;39838;59.938;30.642;2023-11-21T03:32:38;101124.69;;;-3.24;75.15
48926;BME280;39838;59.938;30.642;2023-11-21T03:35:05;101134.47;;;-3.30;75.03
48926;BME280;39838;59.938;30.642;2023-11-21T03:37:32;101138.34;;;-3.35;75.30
48926;BME280;39838;59.938;30.642;2023-11-21T03:40:00;101137.44;;;-3.49;75.48
48926;BME280;39838;59.938;30.642;2023-11-21T03:42:30;101137.41;;;-3.62;75.66
48926;BME280;39838;59.938;30.642;2023-11-21T03:44:57;101141.00;;;-3.72;75.84
48926;BME280;39838;59.938;30.642;2023-11-21T03:47:26;101132.34;;;-3.87;76.12
48926;BME280;39838;59.938;30.642;2023-11-21T03:49:54;101146.44;;;-3.79;76.68
48926;BME280;39838;59.938;30.642;2023-11-21T03:52:22;101146.75;;;-3.74;76.62
48926;BME280;39838;59.938;30.642;2023-11-21T03:54:49;101146.56;;;-3.77;76.67
48926;BME280;39838;59.938;30.642;2023-11-21T03:57:16;101144.56;;;-3.81;76.97
48926;BME280;39838;59.938;30.642;2023-11-21T03:59:43;101154.44;;;-3.73;77.19
48926;BME280;39838;59.938;30.642;2023-11-21T04:02:11;101158.88;;;-3.70;76.30
48926;BME280;39838;59.938;30.642;2023-11-21T04:04:38;101156.91;;;-3.74;76.79
48926;BME280;39838;59.938;30.642;2023-11-21T04:07:07;101157.06;;;-3.85;76.37
48926;BME280;39838;59.938;30.642;2023-11-21T04:09:34;101165.66;;;-3.82;76.79
48926;BME280;39838;59.938;30.642;2023-11-21T04:12:02;101162.34;;;-3.81;76.47
48926;BME280;39838;59.938;30.642;2023-11-21T04:14:30;101164.75;;;-3.71;76.26
48926;BME280;39838;59.938;30.642;2023-11-21T04:16:57;101178.31;;;-3.71;75.64
48926;BME280;39838;59.938;30.642;2023-11-21T04:19:24;101174.91;;;-3.71;75.76
48926;BME280;39838;59.938;30.642;2023-11-21T04:21:51;101185.25;;;-3.68;75.57
48926;BME280;39838;59.938;30.642;2023-11-21T04:24:20;101179.97;;;-3.71;75.32
48926;BME280;39838;59.938;30.642;2023-11-21T04:26:47;101181.31;;;-3.76;74.75
48926;BME280;39838;59.938;30.642;2023-11-21T04:29:14;101184.00;;;-3.87;74.19
48926;BME280;39838;59.938;30.642;2023-11-21T04:31:41;101173.78;;;-4.00;74.58
48926;BME280;39838;59.938;30.642;2023-11-21T04:34:09;101169.75;;;-4.09;74.47
48926;BME280;39838;59.938;30.642;2023-11-21T04:36:36;101176.28;;;-4.13;74.54
48926;BME280;39838;59.938;30.642;2023-11-21T04:39:03;101184.44;;;-4.17;74.64
48926;BME280;39838;59.938;30.642;2023-11-21T04:41:33;101179.13;;;-4.20;74.09
48926;BME280;39838;59.938;30.642;2023-11-21T04:44:02;101181.47;;;-4.23;74.60
48926;BME280;39838;59.938;30.642;2023-11-21T04:46:30;101194.94;;;-4.24;73.81
48926;BME280;39838;59.938;30.642;2023-11-21T04:48:57;101192.16;;;-4.27;74.17
48926;BME280;39838;59.938;30.642;2023-11-21T04:51:25;101200.34;;;-4.31;73.77
48926;BME280;39838;59.938;30.642;2023-11-21T04:53:53;101188.78;;;-4.40;73.80
48926;BME280;39838;59.938;30.642;2023-11-21T04:56:20;101188.56;;;-4.54;74.05
48926;BME280;39838;59.938;30.642;2023-11-21T04:58:48;101199.63;;;-4.54;74.45
48926;BME280;39838;59.938;30.642;2023-11-21T05:01:16;101203.47;;;-4.59;74.55
48926;BME280;39838;59.938;30.642;2023-11-21T05:03:43;101208.75;;;-4.68;74.02
48926;BME280;39838;59.938;30.642;2023-11-21T05:06:10;101211.84;;;-4.72;74.64
48926;BME280;39838;59.938;30.642;2023-11-21T05:08:37;101215.59;;;-4.78;74.37
48926;BME280;39838;59.938;30.642;2023-11-21T05:11:05;101220.66;;;-4.78;75.26
48926;BME280;39838;59.938;30.642;2023-11-21T05:13:34;101223.09;;;-4.80;74.84
48926;BME280;39838;59.938;30.642;2023-11-21T05:16:03;101208.84;;;-4.89;74.90
48926;BME280;39838;59.938;30.642;2023-11-21T05:18:32;101215.94;;;-4.85;74.58
48926;BME280;39838;59.938;30.642;2023-11-21T05:21:00;101216.78;;;-4.97;74.90
48926;BME280;39838;59.938;30.642;2023-11-21T05:23:27;101228.22;;;-5.02;74.83
48926;BME280;39838;59.938;30.642;2023-11-21T05:25:55;101232.22;;;-5.05;75.45
48926;BME280;39838;59.938;30.642;2023-11-21T05:28:22;101236.28;;;-5.07;75.31
48926;BME280;39838;59.938;30.642;2023-11-21T05:30:49;101241.22;;;-5.09;75.20
48926;BME280;39838;59.938;30.642;2023-11-21T05:33:18;101248.63;;;-5.12;75.31
48926;BME280;39838;59.938;30.642;2023-11-21T05:35:45;101248.94;;;-5.19;75.51
48926;BME280;39838;59.938;30.642;2023-11-21T05:38:14;101258.72;;;-5.24;74.98
48926;BME280;39838;59.938;30.642;2023-11-21T05:40:41;101252.53;;;-5.27;75.65
48926;BME280;39838;59.938;30.642;2023-11-21T05:43:09;101240.31;;;-5.33;75.27
48926;BME280;39838;59.938;30.642;2023-11-21T05:45:37;101258.91;;;-5.32;75.31
48926;BME280;39838;59.938;30.642;2023-11-21T05:48:04;101252.59;;;-5.37;74.83
48926;BME280;39838;59.938;30.642;2023-11-21T05:50:33;101259.22;;;-5.39;74.93
48926;BME280;39838;59.938;30.642;2023-11-21T05:53:00;101276.69;;;-5.42;74.75
48926;BME280;39838;59.938;30.642;2023-11-21T05:55:28;101280.56;;;-5.47;74.92
48926;BME280;39838;59.938;30.642;2023-11-21T05:57:55;101283.19;;;-5.46;74.75
48926;BME280;39838;59.938;30.642;2023-11-21T06:00:22;101276.91;;;-5.51;74.79
48926;BME280;39838;59.938;30.642;2023-11-21T06:02:51;101286.81;;;-5.54;74.71
48926;BME280;39838;59.938;30.642;2023-11-21T06:05:21;101291.88;;;-5.54;74.88
48926;BME280;39838;59.938;30.642;2023-11-21T06:07:50;101285.03;;;-5.55;74.68
48926;BME280;39838;59.938;30.642;2023-11-21T06:10:19;101254.63;;;-5.77;74.30
48926;BME280;39838;59.938;30.642;2023-11-21T06:12:47;101294.56;;;-5.63;74.33
48926;BME280;39838;59.938;30.642;2023-11-21T06:15:14;101298.13;;;-5.61;74.24
48926;BME280;39838;59.938;30.642;2023-11-21T06:17:45;101297.22;;;-5.61;74.57
48926;BME280;39838;59.938;30.642;2023-11-21T06:20:15;101308.09;;;-5.62;74.73
48926;BME280;39838;59.938;30.642;2023-11-21T06:22:47;101295.88;;;-5.68;74.82
48926;BME280;39838;59.938;30.642;2023-11-21T06:25:16;101292.09;;;-5.73;75.50
48926;BME280;39838;59.938;30.642;2023-11-21T06:27:44;101320.25;;;-5.58;75.21
48926;BME280;39838;59.938;30.642;2023-11-21T06:30:12;101313.31;;;-5.61;74.80
48926;BME280;39838;59.938;30.642;2023-11-21T06:32:41;101318.06;;;-5.54;74.83
48926;BME280;39838;59.938;30.642;2023-11-21T06:35:12;101320.31;;;-5.46;75.66
48926;BME280;39838;59.938;30.642;2023-11-21T06:37:41;101329.25;;;-5.40;75.03
48926;BME280;39838;59.938;30.642;2023-11-21T06:40:13;101321.41;;;-5.43;74.67
48926;BME280;39838;59.938;30.642;2023-11-21T06:42:42;101332.66;;;-5.39;75.18
48926;BME280;39838;59.938;30.642;2023-11-21T06:45:10;101330.03;;;-5.41;74.84
48926;BME280;39838;59.938;30.642;2023-11-21T06:47:38;101332.56;;;-5.41;75.12
48926;BME280;39838;59.938;30.642;2023-11-21T06:50:05;101342.91;;;-5.38;74.49
48926;BME280;39838;59.938;30.642;2023-11-21T06:52:33;101345.81;;;-5.33;75.06
48926;BME280;39838;59.938;30.642;2023-11-21T06:55:01;101338.97;;;-5.34;74.70
48926;BME280;39838;59.938;30.642;2023-11-21T06:57:31;101349.69;;;-5.27;74.58
48926;BME280;39838;59.938;30.642;2023-11-21T07:00:00;101342.97;;;-5.26;74.79
48926;BME280;39838;59.938;30.642;2023-11-21T07:02:33;101342.00;;;-5.28;75.23
48926;BME280;39838;59.938;30.642;2023-11-21T07:05:00;101348.25;;;-5.23;74.92
48926;BME280;39838;59.938;30.642;2023-11-21T07:07:30;101345.69;;;-5.13;75.17
48926;BME280;39838;59.938;30.642;2023-11-21T07:09:58;101350.53;;;-5.04;74.59
48926;BME280;39838;59.938;30.642;2023-11-21T07:12:30;101352.88;;;-4.96;74.51
48926;BME280;39838;59.938;30.642;2023-11-21T07:14:57;101343.56;;;-4.85;74.56
48926;BME280;39838;59.938;30.642;2023-11-21T07:17:26;101353.69;;;-4.85;73.51
48926;BME280;39838;59.938;30.642;2023-11-21T07:19:53;101355.72;;;-4.81;73.54
48926;BME280;39838;59.938;30.642;2023-11-21T07:22:20;101356.38;;;-4.72;74.24
48926;BME280;39838;59.938;30.642;2023-11-21T07:24:49;101348.09;;;-4.69;74.17
48926;BME280;39838;59.938;30.642;2023-11-21T07:27:17;101353.31;;;-4.56;73.64
48926;BME280;39838;59.938;30.642;2023-11-21T07:29:44;101340.97;;;-4.51;73.77
48926;BME280;39838;59.938;30.642;2023-11-21T07:32:11;101362.97;;;-4.40;73.77
48926;BME280;39838;59.938;30.642;2023-11-21T07:34:40;101363.28;;;-4.35;73.37
48926;BME280;39838;59.938;30.642;2023-11-21T07:37:08;101359.53;;;-4.29;73.06
48926;BME280;39838;59.938;30.642;2023-11-21T07:39:35;101351.81;;;-4.30;72.93
48926;BME280;39838;59.938;30.642;2023-11-21T07:42:03;101360.75;;;-4.12;72.48
48926;BME280;39838;59.938;30.642;2023-11-21T07:44:30;101366.94;;;-4.08;72.25
48926;BME280;39838;59.938;30.642;2023-11-21T07:46:57;101362.19;;;-4.04;72.38
48926;BME280;39838;59.938;30.642;2023-11-21T07:49:25;101370.25;;;-3.98;72.66
48926;BME280;39838;59.938;30.642;2023-11-21T07:51:54;101363.03;;;-3.80;72.90
48926;BME280;39838;59.938;30.642;2023-11-21T07:54:21;101371.28;;;-3.59;72.45
48926;BME280;39838;59.938;30.642;2023-11-21T07:56:48;101369.63;;;-3.47;71.72
48926;BME280;39838;59.938;30.642;2023-11-21T07:59:15;101364.31;;;-3.38;71.62
48926;BME280;39838;59.938;30.642;2023-11-21T08:01:43;101365.19;;;-3.38;71.36
48926;BME280;39838;59.938;30.642;2023-11-21T08:04:11;101371.16;;;-3.37;71.46
48926;BME280;39838;59.938;30.642;2023-11-21T08:06:38;101364.50;;;-3.35;71.20
48926;BME280;39838;59.938;30.642;2023-11-21T08:09:08;101362.28;;;-3.31;71.39
48926;BME280;39838;59.938;30.642;2023-11-21T08:11:38;101372.09;;;-3.23;70.83
48926;BME280;39838;59.938;30.642;2023-11-21T08:14:05;101370.66;;;-3.20;70.93
48926;BME280;39838;59.938;30.642;2023-11-21T08:16:32;101374.28;;;-3.16;70.74
48926;BME280;39838;59.938;30.642;2023-11-21T08:19:00;101369.72;;;-3.09;70.99
48926;BME280;39838;59.938;30.642;2023-11-21T08:21:27;101372.22;;;-2.97;70.89
48926;BME280;39838;59.938;30.642;2023-11-21T08:23:54;101363.78;;;-2.84;70.90
48926;BME280;39838;59.938;30.642;2023-11-21T08:26:23;101365.81;;;-2.79;70.58
48926;BME280;39838;59.938;30.642;2023-11-21T08:28:51;101355.88;;;-2.76;70.76
48926;BME280;39838;59.938;30.642;2023-11-21T08:31:24;101353.25;;;-2.64;70.31
48926;BME280;39838;59.938;30.642;2023-11-21T08:33:52;101354.44;;;-2.59;70.40
48926;BME280;39838;59.938;30.642;2023-11-21T08:36:21;101351.22;;;-2.56;70.03
48926;BME280;39838;59.938;30.642;2023-11-21T08:38:49;101354.56;;;-2.57;69.88
48926;BME280;39838;59.938;30.642;2023-11-21T08:41:18;101351.00;;;-2.59;69.83
48926;BME280;39838;59.938;30.642;2023-11-21T08:43:50;101349.63;;;-2.67;69.58
48926;BME280;39838;59.938;30.642;2023-11-21T08:46:17;101356.84;;;-2.73;69.77
48926;BME280;39838;59.938;30.642;2023-11-21T08:48:44;101354.38;;;-2.72;69.87
48926;BME280;39838;59.938;30.642;2023-11-21T08:51:12;101359.59;;;-2.70;70.04
48926;BME280;39838;59.938;30.642;2023-11-21T08:53:40;101354.72;;;-2.67;69.91
48926;BME280;39838;59.938;30.642;2023-11-21T08:56:12;101342.38;;;-2.75;69.58
48926;BME280;39838;59.938;30.642;2023-11-21T08:58:39;101356.47;;;-2.66;69.27
48926;BME280;39838;59.938;30.642;2023-11-21T09:01:08;101355.00;;;-2.76;69.42
48926;BME280;39838;59.938;30.642;2023-11-21T09:03:35;101362.53;;;-2.78;69.84
48926;BME280;39838;59.938;30.642;2023-11-21T09:06:03;101361.00;;;-2.87;69.54
48926;BME280;39838;59.938;30.642;2023-11-21T09:08:31;101363.53;;;-3.12;69.73
48926;BME280;39838;59.938;30.642;2023-11-21T09:10:58;101365.91;;;-3.27;70.28
48926;BME280;39838;59.938;30.642;2023-11-21T09:13:25;101359.97;;;-3.39;70.37
48926;BME280;39838;59.938;30.642;2023-11-21T09:15:53;101372.94;;;-3.48;70.63
48926;BME280;39838;59.938;30.642;2023-11-21T09:18:22;101365.03;;;-3.64;71.31
48926;BME280;39838;59.938;30.642;2023-11-21T09:20:49;101364.69;;;-3.69;71.49
48926;BME280;39838;59.938;30.642;2023-11-21T09:23:16;101361.19;;;-3.71;71.91
48926;BME280;39838;59.938;30.642;2023-11-21T09:25:43;101372.56;;;-3.77;71.98
48926;BME280;39838;59.938;30.642;2023-11-21T09:28:13;101367.38;;;-3.79;72.34
48926;BME280;39838;59.938;30.642;2023-11-21T09:30:41;101361.72;;;-3.75;72.68
48926;BME280;39838;59.938;30.642;2023-11-21T09:33:08;101366.78;;;-3.63;72.85
48926;BME280;39838;59.938;30.642;2023-11-21T09:35:38;101367.34;;;-3.67;72.67
48926;BME280;39838;59.938;30.642;2023-11-21T09:38:05;101372.06;;;-3.60;73.30
48926;BME280;39838;59.938;30.642;2023-11-21T09:40:35;101375.03;;;-3.54;73.25
48926;BME280;39838;59.938;30.642;2023-11-21T09:43:06;101376.47;;;-3.46;73.39
48926;BME280;39838;59.938;30.642;2023-11-21T09:45:35;101376.25;;;-3.37;73.27
48926;BME280;39838;59.938;30.642;2023-11-21T09:48:02;101378.31;;;-3.32;72.99
48926;BME280;39838;59.938;30.642;2023-11-21T09:50:32;101379.31;;;-3.30;72.44
48926;BME280;39838;59.938;30.642;2023-11-21T09:53:09;101359.81;;;-3.54;72.34
48926;BME280;39838;59.938;30.642;2023-11-21T09:55:42;101377.91;;;-3.49;72.54
48926;BME280;39838;59.938;30.642;2023-11-21T09:58:10;101382.66;;;-3.54;72.96
48926;BME280;39838;59.938;30.642;2023-11-21T10:00:40;101377.47;;;-3.55;72.88
48926;BME280;39838;59.938;30.642;2023-11-21T10:03:08;101385.00;;;-3.57;73.19
48926;BME280;39838;59.938;30.642;2023-11-21T10:05:35;101387.19;;;-3.50;73.12
48926;BME280;39838;59.938;30.642;2023-11-21T10:08:07;101384.84;;;-3.47;73.37
48926;BME280;39838;59.938;30.642;2023-11-21T10:10:36;101386.75;;;-3.44;73.22
48926;BME280;39838;59.938;30.642;2023-11-21T10:13:05;101374.19;;;-3.66;73.33
48926;BME280;39838;59.938;30.642;2023-11-21T10:15:34;101360.63;;;-3.90;73.90
48926;BME280;39838;59.938;30.642;2023-11-21T10:18:03;101385.13;;;-3.67;74.49
48926;BME280;39838;59.938;30.642;2023-11-21T10:20:32;101389.56;;;-3.65;74.21
48926;BME280;39838;59.938;30.642;2023-11-21T10:23:00;101384.34;;;-3.66;74.23
48926;BME280;39838;59.938;30.642;2023-11-21T10:25:30;101396.84;;;-3.69;74.09
48926;BME280;39838;59.938;30.642;2023-11-21T10:27:59;101394.63;;;-3.76;74.75
48926;BME280;39838;59.938;30.642;2023-11-21T10:30:33;101394.09;;;-3.84;75.07
48926;BME280;39838;59.938;30.642;2023-11-21T10:33:03;101373.22;;;-4.03;75.57
48926;BME280;39838;59.938;30.642;2023-11-21T10:35:48;101401.81;;;-3.82;75.75
48926;BME280;39838;59.938;30.642;2023-11-21T10:38:17;101393.75;;;-3.77;75.85
48926;BME280;39838;59.938;30.642;2023-11-21T10:40:44;101386.47;;;-3.72;75.30
48926;BME280;39838;59.938;30.642;2023-11-21T10:43:12;101399.13;;;-3.61;75.21
48926;BME280;39838;59.938;30.642;2023-11-21T10:45:41;101382.72;;;-3.66;75.75
48926;BME280;39838;59.938;30.642;2023-11-21T10:48:11;101391.50;;;-3.49;75.75
48926;BME280;39838;59.938;30.642;2023-11-21T10:50:41;101400.00;;;-3.37;75.38
48926;BME280;39838;59.938;30.642;2023-11-21T10:53:09;101404.28;;;-3.36;75.22
48926;BME280;39838;59.938;30.642;2023-11-21T10:55:37;101402.72;;;-3.34;75.22
48926;BME280;39838;59.938;30.642;2023-11-21T10:58:06;101407.81;;;-3.34;75.39
48926;BME280;39838;59.938;30.642;2023-11-21T11:00:37;101404.84;;;-3.40;75.80
48926;BME280;39838;59.938;30.642;2023-11-21T11:03:07;101406.41;;;-3.42;75.98
48926;BME280;39838;59.938;30.642;2023-11-21T11:05:40;101385.63;;;-3.48;75.91
48926;BME280;39838;59.938;30.642;2023-11-21T11:08:18;101402.66;;;-3.47;75.98
48926;BME280;39838;59.938;30.642;2023-11-21T11:10:51;101405.09;;;-3.48;75.75
48926;BME280;39838;59.938;30.642;2023-11-21T11:13:20;101409.19;;;-3.50;75.99
48926;BME280;39838;59.938;30.642;2023-11-21T11:15:48;101412.28;;;-3.54;76.24
48926;BME280;39838;59.938;30.642;2023-11-21T11:18:16;101408.31;;;-3.51;76.52
48926;BME280;39838;59.938;30.642;2023-11-21T11:20:45;101406.53;;;-3.52;76.71
48926;BME280;39838;59.938;30.642;2023-11-21T11:23:31;101403.66;;;-3.57;76.73
48926;BME280;39838;59.938;30.642;2023-11-21T11:26:12;101393.75;;;-3.65;76.92
48926;BME280;39838;59.938;30.642;2023-11-21T11:28:47;101401.22;;;-3.55;76.84
48926;BME280;39838;59.938;30.642;2023-11-21T11:31:27;101404.97;;;-3.50;76.79
48926;BME280;39838;59.938;30.642;2023-11-21T11:34:08;101402.09;;;-3.54;76.78
48926;BME280;39838;59.938;30.642;2023-11-21T11:36:46;101396.81;;;-3.58;77.01
48926;BME280;39838;59.938;30.642;2023-11-21T11:39:27;101403.88;;;-3.53;77.39
48926;BME280;39838;59.938;30.642;2023-11-21T11:41:55;101404.97;;;-3.50;77.40
48926;BME280;39838;59.938;30.642;2023-11-21T11:44:50;101407.00;;;-3.58;77.13
48926;BME280;39838;59.938;30.642;2023-11-21T11:47:23;101404.66;;;-3.54;77.42
48926;BME280;39838;59.938;30.642;2023-11-21T11:50:04;101371.97;;;-3.73;77.76
48926;BME280;39838;59.938;30.642;2023-11-21T11:52:34;101379.38;;;-3.65;78.05
48926;BME280;39838;59.938;30.642;2023-11-21T11:55:02;101399.91;;;-3.50;77.60
48926;BME280;39838;59.938;30.642;2023-11-21T11:57:31;101410.72;;;-3.52;78.08
48926;BME280;39838;59.938;30.642;2023-11-21T12:00:18;101406.09;;;-3.58;77.77
48926;BME280;39838;59.938;30.642;2023-11-21T12:02:48;101417.00;;;-3.59;78.43
48926;BME280;39838;59.938;30.642;2023-11-21T12:05:16;101389.22;;;-3.69;78.08
48926;BME280;39838;59.938;30.642;2023-11-21T12:07:51;101400.34;;;-3.55;78.17
48926;BME280;39838;59.938;30.642;2023-11-21T12:10:21;101402.44;;;-3.50;78.29
48926;BME280;39838;59.938;30.642;2023-11-21T12:12:51;101421.84;;;-3.39;78.17
48926;BME280;39838;59.938;30.642;2023-11-21T12:15:21;101425.31;;;-3.38;78.37
48926;BME280;39838;59.938;30.642;2023-11-21T12:17:49;101423.63;;;-3.38;78.24
48926;BME280;39838;59.938;30.642;2023-11-21T12:20:19;101417.78;;;-3.37;78.05
48926;BME280;39838;59.938;30.642;2023-11-21T12:22:47;101416.66;;;-3.40;78.38
48926;BME280;39838;59.938;30.642;2023-11-21T12:25:15;101430.94;;;-3.54;78.50
48926;BME280;39838;59.938;30.642;2023-11-21T12:27:45;101423.88;;;-3.58;78.66
48926;BME280;39838;59.938;30.642;2023-11-21T12:30:16;101417.34;;;-3.66;78.90
48926;BME280;39838;59.938;30.642;2023-11-21T12:32:48;101420.69;;;-3.67;79.33
48926;BME280;39838;59.938;30.642;2023-11-21T12:35:17;101433.72;;;-3.63;78.94
48926;BME280;39838;59.938;30.642;2023-11-21T12:37:45;101437.03;;;-3.64;79.04
48926;BME280;39838;59.938;30.642;2023-11-21T12:40:14;101437.13;;;-3.62;79.08
48926;BME280;39838;59.938;30.642;2023-11-21T12:42:46;101436.47;;;-3.60;79.11
48926;BME280;39838;59.938;30.642;2023-11-21T12:45:19;101435.47;;;-3.62;79.58
48926;BME280;39838;59.938;30.642;2023-11-21T12:47:49;101430.63;;;-3.70;79.38